Wetterdaten: Woche 09.02.09 - 15.02.09 (KW7)
Datum Zeit Temp. A. Feuchte A. Luftdruck Regen Wind Richtung Taupunkt Windchill Windben
09.02.2009 00:00 1,6 C 77 % 1005,8 hPa 0,0 l/m 16,0 km/h W-NW -1,9 C -5,6 C 34,2 km/h
09.02.2009 01:00 1,5 C 78 % 1006,4 hPa 0,0 l/m 18,2 km/h NW -2,0 C -6,8 C 36,6 km/h
09.02.2009 02:00 1,2 C 80 % 1007,0 hPa 0,0 l/m 13,9 km/h W-NW -2,0 C -4,9 C 29,8 km/h
09.02.2009 03:00 1,0 C 79 % 1007,6 hPa 0,0 l/m 14,2 km/h NW -2,2 C -5,2 C 28,1 km/h
09.02.2009 04:00 0,9 C 77 % 1008,3 hPa 0,0 l/m 13,9 km/h NW -2,6 C -5,2 C 29,4 km/h
09.02.2009 05:00 1,0 C 75 % 1009,0 hPa 0,0 l/m 11,9 km/h NW -3,0 C -3,7 C 27,4 km/h
09.02.2009 06:00 1,0 C 73 % 1009,8 hPa 0,0 l/m 10,1 km/h W-NW -3,4 C -2,4 C 24,1 km/h
09.02.2009 07:00 0,9 C 71 % 1010,5 hPa 0,0 l/m 8,7 km/h NW -3,7 C -1,3 C 20,5 km/h
09.02.2009 08:00 1,0 C 71 % 1011,1 hPa 0,0 l/m 10,3 km/h NW -3,6 C -2,5 C 22,9 km/h
09.02.2009 09:00 1,5 C 70 % 1011,4 hPa 0,0 l/m 10,5 km/h W-NW -3,5 C -2,1 C 24,9 km/h
09.02.2009 10:00 2,2 C 66 % 1012,1 hPa 0,0 l/m 11,8 km/h W -3,6 C -2,2 C 26,5 km/h
09.02.2009 11:00 3,0 C 61 % 1012,6 hPa 0,0 l/m 10,7 km/h N-NW -3,8 C -0,7 C 25,0 km/h
09.02.2009 12:00 3,0 C 59 % 1012,3 hPa 0,0 l/m 11,2 km/h NW -4,2 C -0,9 C 24,5 km/h
09.02.2009 13:00 3,2 C 58 % 1012,2 hPa 0,0 l/m 10,9 km/h NW -4,2 C -0,5 C 22,1 km/h
09.02.2009 14:00 3,2 C 61 % 1012,0 hPa 0,0 l/m 8,6 km/h NW -3,7 C 1,2 C 19,3 km/h
09.02.2009 15:00 2,5 C 62 % 1011,8 hPa 0,0 l/m 6,9 km/h NW -4,0 C 1,9 C 14,5 km/h
09.02.2009 16:00 2,0 C 61 % 1011,9 hPa 0,0 l/m 4,9 km/h NW -4,7 C 2,0 C 12,5 km/h
09.02.2009 17:00 0,0 C 68 % 1012,0 hPa 0,0 l/m 0,5 km/h N -5,1 C 0,0 C 2,0 km/h
09.02.2009 18:00 -1,6 C 78 % 1012,1 hPa 0,0 l/m 0,0 km/h N -5,0 C -1,6 C 0,0 km/h
09.02.2009 19:00 -2,3 C 83 % 1012,0 hPa 0,0 l/m 0,0 km/h N -4,9 C -2,3 C 0,4 km/h
09.02.2009 20:00 -2,3 C 84 % 1011,8 hPa 0,0 l/m 0,0 km/h N -4,6 C -2,3 C 1,2 km/h
09.02.2009 21:00 -2,8 C 86 % 1011,6 hPa 0,0 l/m 0,0 km/h N -4,8 C -2,8 C 0,0 km/h
09.02.2009 22:00 -3,5 C 88 % 1011,2 hPa 0,0 l/m 0,0 km/h N -5,1 C -3,5 C 0,0 km/h
09.02.2009 23:00 -3,6 C 89 % 1010,5 hPa 0,0 l/m 0,0 km/h N -5,2 C -3,6 C 0,0 km/h
10.02.2009 00:00 -4,0 C 89 % 1009,4 hPa 0,0 l/m 0,0 km/h N -5,5 C -4,0 C 0,0 km/h
10.02.2009 01:00 -4,3 C 89 % 1008,3 hPa 0,0 l/m 0,0 km/h N -5,8 C -4,3 C 0,0 km/h
10.02.2009 02:00 -4,0 C 90 % 1007,2 hPa 0,0 l/m 0,0 km/h N -5,4 C -4,0 C 0,4 km/h
10.02.2009 03:00 -3,9 C 90 % 1005,8 hPa 0,0 l/m 0,0 km/h N -5,3 C -3,9 C 0,0 km/h
10.02.2009 04:00 -3,0 C 91 % 1004,5 hPa 0,0 l/m 0,2 km/h N -4,2 C -3,0 C 2,0 km/h
10.02.2009 05:00 -2,2 C 90 % 1003,8 hPa 0,0 l/m 0,2 km/h N -3,5 C -2,2 C 2,0 km/h
10.02.2009 06:00 -1,7 C 90 % 1003,8 hPa 0,0 l/m 0,1 km/h N -3,2 C -1,7 C 2,4 km/h
10.02.2009 07:00 -1,3 C 88 % 1003,1 hPa 0,0 l/m 0,1 km/h N -3,1 C -1,3 C 0,8 km/h
10.02.2009 08:00 -0,9 C 87 % 1002,4 hPa 0,0 l/m 0,0 km/h N -2,8 C -0,9 C 0,0 km/h
10.02.2009 09:00 0,2 C 83 % 1001,9 hPa 0,0 l/m 1,1 km/h O -2,3 C 0,2 C 4,3 km/h
10.02.2009 10:00 0,9 C 81 % 1001,2 hPa 0,0 l/m 1,8 km/h N -2,0 C 0,9 C 2,4 km/h
10.02.2009 11:00 1,1 C 81 % 1000,8 hPa 0,0 l/m 1,9 km/h O-NO -1,9 C 1,1 C 3,7 km/h
10.02.2009 12:00 1,1 C 85 % 1000,6 hPa 2,7 l/m 1,0 km/h O-NO -1,2 C 1,1 C 4,8 km/h
10.02.2009 13:00 1,3 C 89 % 999,5 hPa 1,5 l/m 2,5 km/h O-SO -0,4 C 1,3 C 6,8 km/h
10.02.2009 14:00 1,1 C 90 % 999,3 hPa 1,8 l/m 2,6 km/h O-SO -0,4 C 1,1 C 10,9 km/h
10.02.2009 15:00 0,9 C 91 % 1000,1 hPa 0,3 l/m 1,2 km/h S -0,4 C 0,9 C 6,0 km/h
10.02.2009 16:00 0,8 C 91 % 1000,8 hPa 0,0 l/m 1,5 km/h NO -0,5 C 0,8 C 5,6 km/h
10.02.2009 17:00 0,5 C 91 % 1000,8 hPa 0,0 l/m 0,1 km/h N -0,7 C 0,5 C 1,2 km/h
10.02.2009 18:00 0,6 C 92 % 1000,8 hPa 0,3 l/m 0,6 km/h S -0,5 C 0,6 C 5,2 km/h
10.02.2009 19:00 0,7 C 92 % 1000,5 hPa 0,0 l/m 1,1 km/h S -0,4 C 0,7 C 6,0 km/h
10.02.2009 20:00 0,6 C 92 % 1000,3 hPa 0,0 l/m 0,6 km/h O-SO -0,6 C 0,6 C 4,8 km/h
10.02.2009 21:00 0,5 C 93 % 1000,5 hPa 0,0 l/m 1,8 km/h S -0,6 C 0,5 C 8,1 km/h
10.02.2009 22:00 0,5 C 93 % 1000,4 hPa 0,0 l/m 0,7 km/h N -0,5 C 0,5 C 5,2 km/h
10.02.2009 23:00 0,8 C 93 % 1000,6 hPa 0,3 l/m 4,4 km/h O -0,1 C -0,2 C 14,1 km/h
11.02.2009 00:00 4,3 C 78 % 1000,2 hPa 0,3 l/m 11,8 km/h W 0,7 C 0,3 C 33,0 km/h
11.02.2009 01:00 5,4 C 64 % 1000,3 hPa 0,0 l/m 15,0 km/h W -0,8 C -0,4 C 35,0 km/h
11.02.2009 02:00 5,5 C 62 % 1000,4 hPa 0,0 l/m 16,0 km/h S-SW -1,3 C -0,8 C 39,4 km/h
11.02.2009 03:00 4,8 C 65 % 1000,7 hPa 0,3 l/m 16,3 km/h W -1,3 C -1,8 C 41,0 km/h
11.02.2009 04:00 4,3 C 67 % 1000,7 hPa 0,0 l/m 16,3 km/h W -1,3 C -2,3 C 41,9 km/h
11.02.2009 05:00 4,0 C 69 % 1000,1 hPa 0,0 l/m 19,1 km/h W -1,2 C -4,0 C 45,1 km/h
11.02.2009 06:00 3,8 C 71 % 1000,6 hPa 0,0 l/m 20,9 km/h W-NW -1,1 C -5,1 C 47,1 km/h
11.02.2009 07:00 3,5 C 71 % 1001,7 hPa 0,0 l/m 17,5 km/h W -1,2 C -3,9 C 38,2 km/h
11.02.2009 08:00 3,6 C 70 % 1002,7 hPa 0,0 l/m 18,0 km/h NW -1,3 C -4,1 C 37,8 km/h
11.02.2009 09:00 3,7 C 70 % 1003,0 hPa 0,0 l/m 19,0 km/h NW -1,2 C -4,4 C 40,7 km/h
11.02.2009 10:00 4,0 C 69 % 1003,6 hPa 0,0 l/m 18,1 km/h NW -1,2 C -3,7 C 40,2 km/h
11.02.2009 11:00 4,0 C 70 % 1004,0 hPa 0,0 l/m 17,5 km/h NW -1,0 C -3,3 C 39,4 km/h
11.02.2009 12:00 1,9 C 83 % 1004,7 hPa 0,0 l/m 12,6 km/h N -0,8 C -3,0 C 27,3 km/h
11.02.2009 13:00 1,9 C 85 % 1005,0 hPa 1,2 l/m 13,1 km/h NW -0,4 C -3,5 C 29,0 km/h
11.02.2009 14:00 1,4 C 87 % 1005,4 hPa 0,3 l/m 7,5 km/h N-NW -0,7 C 0,2 C 18,9 km/h
11.02.2009 15:00 0,7 C 90 % 1006,0 hPa 0,0 l/m 11,0 km/h W-NW -0,8 C -3,3 C 23,0 km/h
11.02.2009 16:00 1,2 C 87 % 1006,7 hPa 0,9 l/m 11,2 km/h NW -0,7 C -2,9 C 27,4 km/h
11.02.2009 17:00 1,5 C 84 % 1007,3 hPa 0,3 l/m 10,8 km/h W-NW -0,9 C -2,3 C 25,4 km/h
11.02.2009 18:00 1,3 C 83 % 1008,0 hPa 0,3 l/m 10,3 km/h NW -1,2 C -2,2 C 24,1 km/h
11.02.2009 19:00 1,5 C 80 % 1008,3 hPa 0,3 l/m 12,1 km/h NW -1,5 C -3,3 C 26,5 km/h
11.02.2009 20:00 1,4 C 79 % 1008,7 hPa 0,0 l/m 10,8 km/h W -1,8 C -2,5 C 23,7 km/h
11.02.2009 21:00 1,4 C 77 % 1009,2 hPa 0,3 l/m 12,8 km/h NW -2,2 C -3,9 C 27,0 km/h
11.02.2009 22:00 1,2 C 77 % 1009,7 hPa 0,0 l/m 11,9 km/h NW -2,4 C -3,5 C 25,8 km/h
11.02.2009 23:00 1,1 C 75 % 1010,1 hPa 0,0 l/m 12,9 km/h W-NW -2,8 C -4,3 C 29,0 km/h
12.02.2009 00:00 0,8 C 72 % 1010,5 hPa 0,0 l/m 12,8 km/h NW -3,6 C -4,6 C 27,8 km/h
12.02.2009 01:00 0,6 C 72 % 1010,2 hPa 0,0 l/m 11,8 km/h NW -3,9 C -4,2 C 26,9 km/h
12.02.2009 02:00 0,4 C 75 % 1009,9 hPa 0,0 l/m 11,6 km/h NW -3,6 C -4,2 C 24,9 km/h
12.02.2009 03:00 0,4 C 78 % 1009,3 hPa 0,0 l/m 11,1 km/h N-NW -3,0 C -3,8 C 25,8 km/h
12.02.2009 04:00 0,4 C 79 % 1009,2 hPa 0,0 l/m 11,4 km/h NW -2,9 C -4,1 C 23,3 km/h
12.02.2009 05:00 0,4 C 78 % 1009,1 hPa 0,0 l/m 9,7 km/h NW -2,9 C -2,7 C 20,9 km/h
12.02.2009 06:00 0,4 C 77 % 1009,3 hPa 0,0 l/m 7,5 km/h N-NW -3,2 C -0,8 C 18,9 km/h
12.02.2009 07:00 0,5 C 77 % 1009,7 hPa 0,0 l/m 7,6 km/h W-NW -3,0 C -0,7 C 21,3 km/h
12.02.2009 08:00 0,9 C 76 % 1009,6 hPa 0,0 l/m 8,4 km/h NW -2,8 C -1,1 C 19,7 km/h
12.02.2009 09:00 1,6 C 74 % 1009,7 hPa 0,0 l/m 11,0 km/h NW -2,6 C -2,4 C 25,4 km/h
12.02.2009 10:00 2,0 C 73 % 1009,7 hPa 0,3 l/m 12,9 km/h NW -2,4 C -3,3 C 28,2 km/h
12.02.2009 11:00 2,5 C 71 % 1009,7 hPa 0,3 l/m 12,1 km/h NW -2,2 C -2,2 C 32,2 km/h
12.02.2009 12:00 2,0 C 73 % 1009,8 hPa 0,0 l/m 10,5 km/h NW -2,4 C -1,5 C 25,8 km/h
12.02.2009 13:00 1,7 C 77 % 1009,9 hPa 0,3 l/m 8,9 km/h NW -1,9 C -0,6 C 19,3 km/h
12.02.2009 14:00 1,5 C 75 % 1010,3 hPa 0,0 l/m 7,2 km/h NW -2,4 C 0,7 C 19,3 km/h
12.02.2009 15:00 1,6 C 68 % 1010,7 hPa 0,0 l/m 8,8 km/h N -3,6 C -0,7 C 21,4 km/h
12.02.2009 16:00 0,8 C 65 % 1011,3 hPa 0,3 l/m 10,1 km/h N -5,1 C -2,7 C 24,9 km/h
12.02.2009 17:00 0,2 C 64 % 1012,3 hPa 0,0 l/m 10,6 km/h N -5,8 C -3,7 C 24,5 km/h
12.02.2009 18:00 -0,2 C 63 % 1013,0 hPa 0,0 l/m 12,1 km/h N-NW -6,4 C -5,3 C 26,6 km/h
12.02.2009 19:00 -0,6 C 66 % 1013,3 hPa 0,0 l/m 11,2 km/h N-NW -6,2 C -5,1 C 23,7 km/h
12.02.2009 20:00 -0,6 C 67 % 1013,6 hPa 0,0 l/m 12,0 km/h W -5,9 C -5,7 C 24,5 km/h
12.02.2009 21:00 -0,5 C 67 % 1013,8 hPa 0,0 l/m 15,1 km/h N-NW -5,9 C -7,7 C 29,4 km/h
12.02.2009 22:00 -0,7 C 69 % 1014,1 hPa 0,0 l/m 13,6 km/h N-NW -5,6 C -6,9 C 26,1 km/h
12.02.2009 23:00 -1,1 C 70 % 1014,1 hPa 0,0 l/m 11,9 km/h NW -5,8 C -6,2 C 24,9 km/h
13.02.2009 00:00 -1,5 C 69 % 1014,3 hPa 0,0 l/m 10,6 km/h NW -6,5 C -5,5 C 23,7 km/h
13.02.2009 01:00 -2,1 C 71 % 1014,1 hPa 0,0 l/m 11,3 km/h W-NW -6,6 C -6,8 C 21,7 km/h
13.02.2009 02:00 -2,4 C 71 % 1014,0 hPa 0,0 l/m 11,4 km/h NW -6,9 C -7,3 C 24,1 km/h
13.02.2009 03:00 -2,6 C 72 % 1013,7 hPa 0,0 l/m 12,3 km/h W-NW -7,0 C -8,1 C 24,5 km/h
13.02.2009 04:00 -2,6 C 71 % 1013,6 hPa 0,0 l/m 13,6 km/h NW -7,2 C -9,1 C 26,9 km/h
13.02.2009 05:00 -2,6 C 72 % 1013,8 hPa 0,0 l/m 12,8 km/h NW -6,9 C -8,6 C 23,7 km/h
13.02.2009 06:00 -2,7 C 74 % 1013,9 hPa 0,0 l/m 13,5 km/h W-NW -6,7 C -9,2 C 27,8 km/h
13.02.2009 07:00 -2,7 C 73 % 1014,1 hPa 0,0 l/m 13,5 km/h W-NW -6,9 C -9,2 C 29,8 km/h
13.02.2009 08:00 -2,3 C 70 % 1013,9 hPa 0,0 l/m 14,7 km/h W -6,9 C -9,5 C 31,0 km/h
13.02.2009 09:00 -1,6 C 67 % 1013,9 hPa 0,0 l/m 14,5 km/h NW -6,8 C -8,5 C 28,2 km/h
13.02.2009 10:00 -0,9 C 66 % 1014,0 hPa 0,0 l/m 15,2 km/h NW -6,4 C -8,2 C 29,0 km/h
13.02.2009 11:00 -0,3 C 64 % 1014,0 hPa 0,0 l/m 16,4 km/h W-SW -6,2 C -8,1 C 31,8 km/h
13.02.2009 12:00 0,2 C 60 % 1013,5 hPa 0,0 l/m 17,8 km/h NW -6,6 C -8,3 C 33,0 km/h
13.02.2009 13:00 0,2 C 59 % 1013,2 hPa 0,0 l/m 18,8 km/h NW -6,8 C -8,8 C 35,0 km/h
13.02.2009 14:00 0,4 C 58 % 1013,3 hPa 0,0 l/m 15,9 km/h NW -6,8 C -7,0 C 31,8 km/h
13.02.2009 15:00 0,0 C 60 % 1013,5 hPa 0,0 l/m 17,0 km/h NW -6,9 C -8,1 C 34,2 km/h
13.02.2009 16:00 -0,4 C 63 % 1013,7 hPa 0,0 l/m 15,7 km/h NW -6,7 C -7,9 C 30,2 km/h
13.02.2009 17:00 -0,4 C 59 % 1013,8 hPa 0,0 l/m 14,2 km/h W-NW -7,4 C -7,0 C 30,2 km/h
13.02.2009 18:00 -0,5 C 58 % 1014,1 hPa 0,0 l/m 14,6 km/h NW -7,7 C -7,2 C 30,6 km/h
13.02.2009 19:00 -0,6 C 61 % 1014,3 hPa 0,0 l/m 14,1 km/h NW -7,3 C -7,1 C 29,0 km/h
13.02.2009 20:00 -1,0 C 68 % 1014,2 hPa 0,0 l/m 12,9 km/h NW -6,1 C -6,8 C 27,8 km/h
13.02.2009 21:00 -1,0 C 67 % 1014,3 hPa 0,0 l/m 13,0 km/h NW -6,3 C -6,8 C 28,6 km/h
13.02.2009 22:00 -1,0 C 68 % 1014,2 hPa 0,0 l/m 11,4 km/h NW -6,2 C -5,7 C 24,1 km/h
13.02.2009 23:00 -0,9 C 66 % 1014,3 hPa 0,0 l/m 11,4 km/h W -6,4 C -5,6 C 26,9 km/h
14.02.2009 00:00 -1,0 C 68 % 1014,3 hPa 0,0 l/m 10,1 km/h NW -6,1 C -4,5 C 22,9 km/h
14.02.2009 01:00 -1,1 C 71 % 1014,2 hPa 0,0 l/m 11,4 km/h NW -5,7 C -5,7 C 25,3 km/h
14.02.2009 02:00 -1,8 C 78 % 1014,2 hPa 0,0 l/m 11,3 km/h NW -5,0 C -6,4 C 23,3 km/h
14.02.2009 03:00 -1,8 C 75 % 1014,1 hPa 0,0 l/m 10,1 km/h N-NW -5,6 C -5,4 C 21,7 km/h
14.02.2009 04:00 -2,2 C 74 % 1014,2 hPa 0,0 l/m 9,1 km/h W-NW -6,3 C -5,0 C 19,3 km/h
14.02.2009 05:00 -2,3 C 71 % 1014,2 hPa 0,0 l/m 8,9 km/h NW -6,8 C -5,0 C 19,3 km/h
14.02.2009 06:00 -2,2 C 68 % 1014,5 hPa 0,0 l/m 9,7 km/h NW -7,3 C -5,6 C 21,7 km/h
14.02.2009 07:00 -2,2 C 69 % 1014,8 hPa 0,0 l/m 8,8 km/h W-NW -7,1 C -4,7 C 18,9 km/h
14.02.2009 08:00 -1,8 C 64 % 1015,3 hPa 0,0 l/m 10,3 km/h NW -7,7 C -5,8 C 22,5 km/h
14.02.2009 09:00 -0,9 C 59 % 1015,5 hPa 0,0 l/m 11,5 km/h NW -8,0 C -5,6 C 24,1 km/h
14.02.2009 10:00 0,4 C 50 % 1015,7 hPa 0,0 l/m 15,6 km/h N-NW -8,8 C -6,9 C 30,6 km/h
14.02.2009 11:00 1,1 C 47 % 1015,7 hPa 0,0 l/m 15,7 km/h NW -9,0 C -5,9 C 31,4 km/h
14.02.2009 12:00 1,6 C 51 % 1015,8 hPa 0,0 l/m 14,1 km/h W -7,4 C -4,5 C 31,4 km/h
14.02.2009 13:00 1,4 C 55 % 1016,3 hPa 0,0 l/m 16,7 km/h NW -6,7 C -6,2 C 34,6 km/h
14.02.2009 14:00 1,3 C 60 % 1016,8 hPa 0,0 l/m 17,1 km/h NW -5,7 C -6,6 C 32,2 km/h
14.02.2009 15:00 1,3 C 60 % 1017,4 hPa 0,0 l/m 16,2 km/h NW -5,6 C -6,1 C 32,2 km/h
14.02.2009 16:00 0,8 C 62 % 1018,2 hPa 0,0 l/m 18,2 km/h N-NW -5,6 C -7,7 C 34,2 km/h
14.02.2009 17:00 0,6 C 62 % 1018,8 hPa 0,0 l/m 15,1 km/h N-NW -5,8 C -6,2 C 31,0 km/h
14.02.2009 18:00 0,4 C 63 % 1019,5 hPa 0,0 l/m 15,0 km/h N-NO -5,7 C -6,4 C 29,0 km/h
14.02.2009 19:00 0,1 C 64 % 1019,8 hPa 0,0 l/m 16,1 km/h NW -5,9 C -7,4 C 32,2 km/h
14.02.2009 20:00 -0,3 C 66 % 1020,5 hPa 0,0 l/m 16,1 km/h NW -5,9 C -8,0 C 29,8 km/h
14.02.2009 21:00 -0,7 C 68 % 1021,2 hPa 0,0 l/m 14,6 km/h NW -5,9 C -7,5 C 30,6 km/h
14.02.2009 22:00 -0,8 C 68 % 1021,6 hPa 0,0 l/m 12,2 km/h NW -5,9 C -6,0 C 25,4 km/h
14.02.2009 23:00 -1,0 C 68 % 1022,0 hPa 0,0 l/m 13,8 km/h N-NW -6,2 C -7,4 C 27,0 km/h
15.02.2009 00:00 -1,3 C 67 % 1022,2 hPa 0,0 l/m 12,5 km/h NW -6,6 C -6,8 C 27,4 km/h
15.02.2009 01:00 -1,5 C 68 % 1022,5 hPa 0,0 l/m 13,6 km/h NW -6,6 C -7,9 C 27,0 km/h
15.02.2009 02:00 -1,5 C 68 % 1022,6 hPa 0,0 l/m 12,8 km/h W-NW -6,7 C -7,3 C 27,0 km/h
15.02.2009 03:00 -1,4 C 67 % 1022,7 hPa 0,0 l/m 11,7 km/h W -6,7 C -6,4 C 26,1 km/h
15.02.2009 04:00 -1,8 C 73 % 1023,2 hPa 0,0 l/m 11,7 km/h NW -5,9 C -6,8 C 26,6 km/h
15.02.2009 05:00 -2,8 C 81 % 1023,7 hPa 0,0 l/m 11,0 km/h NW -5,6 C -7,3 C 22,1 km/h
15.02.2009 06:00 -3,1 C 82 % 1023,9 hPa 0,0 l/m 12,1 km/h W-NW -5,7 C -8,7 C 27,4 km/h
15.02.2009 07:00 -2,8 C 77 % 1024,5 hPa 0,0 l/m 14,4 km/h W-NW -6,3 C -9,9 C 30,2 km/h
15.02.2009 08:00 -2,8 C 76 % 1025,3 hPa 0,0 l/m 14,7 km/h NW -6,4 C -10,1 C 30,6 km/h
15.02.2009 09:00 -2,7 C 77 % 1025,8 hPa 0,0 l/m 12,7 km/h W-NW -6,1 C -8,6 C 28,2 km/h
15.02.2009 10:00 -2,3 C 75 % 1026,2 hPa 0,0 l/m 12,6 km/h W-NW -6,2 C -8,1 C 27,0 km/h
15.02.2009 11:00 -1,8 C 75 % 1026,4 hPa 0,0 l/m 12,9 km/h NW -5,7 C -7,7 C 28,6 km/h
15.02.2009 12:00 -1,6 C 75 % 1026,2 hPa 0,0 l/m 12,8 km/h NW -5,5 C -7,3 C 26,5 km/h
15.02.2009 13:00 -1,1 C 71 % 1025,8 hPa 0,0 l/m 11,6 km/h W-SW -5,7 C -5,9 C 25,3 km/h
15.02.2009 14:00 -1,4 C 69 % 1025,5 hPa 0,0 l/m 13,0 km/h W-NW -6,4 C -7,3 C 29,4 km/h
15.02.2009 15:00 -1,4 C 65 % 1025,2 hPa 0,0 l/m 10,2 km/h W -7,1 C -5,1 C 23,3 km/h
15.02.2009 16:00 -1,6 C 64 % 1025,3 hPa 0,0 l/m 8,6 km/h W-NW -7,5 C -3,9 C 21,7 km/h
15.02.2009 17:00 -1,9 C 64 % 1025,3 hPa 0,0 l/m 8,4 km/h W-SW -7,8 C -4,0 C 21,7 km/h
15.02.2009 18:00 -2,5 C 66 % 1025,5 hPa 0,0 l/m 6,9 km/h W-NW -7,9 C -3,1 C 18,5 km/h
15.02.2009 19:00 -2,8 C 67 % 1025,5 hPa 0,0 l/m 7,5 km/h W-NW -8,0 C -4,1 C 20,5 km/h
15.02.2009 20:00 -2,8 C 68 % 1025,4 hPa 0,0 l/m 9,7 km/h W -7,9 C -6,2 C 28,2 km/h
15.02.2009 21:00 -2,6 C 66 % 1025,3 hPa 0,0 l/m 10,6 km/h NW -8,0 C -6,8 C 23,7 km/h
15.02.2009 22:00 -2,4 C 66 % 1025,2 hPa 0,0 l/m 9,8 km/h W-NW -8,0 C -5,8 C 23,7 km/h
15.02.2009 23:00 -2,3 C 64 % 1025,1 hPa 0,0 l/m 6,9 km/h W-NW -8,2 C -3,1 C 18,9 km/h
Min-Datum _ 10.02.09 14.02.09 10.02.09 - 09.02.09 - 14.02.09 15.02.09 09.02.09
_ Min-Zeit 01:45 11:00 14:00 - 17:15 - 11:00 08:30 17:30
Minimum _ -4,4 C 44 % 999,0 hPa - 0,0 km/h - -9,7 C -11,2 C 0,0 km/h
Max-Datum _ 11.02.09 10.02.09 15.02.09 10.02.09 11.02.09 - 11.02.09 09.02.09 11.02.09
_ Max-Zeit 01:30 23:45 11:15 12:30 06:15 - 00:00 14:15 06:15
Maximum _ 5,6 C 94 % 1026,4 hPa 2,7 l/m 22,8 km/h
W-NW
- 1,8 C 2,8 C 51,5 km/h
W-NW
Durchschnitt _ -0,0 C 73 % 1012,0 hPa #12,3 l/m 10,4 km/h NW -4,4 C -4,2 C 22,8 km/h